createdAt,value
2017-12-19T00:01:40.949Z,75.47
2017-12-19T00:04:07.192Z,73.63
2017-12-19T00:06:33.409Z,74.47
2017-12-19T00:08:59.891Z,77.07
2017-12-19T00:11:26.184Z,78.50
2017-12-19T00:13:52.413Z,64.97
2017-12-19T00:16:18.842Z,59.70
2017-12-19T00:18:45.058Z,61.00
2017-12-19T00:21:11.275Z,69.70
2017-12-19T00:23:37.724Z,62.70
2017-12-19T00:26:03.923Z,71.63
2017-12-19T00:28:30.227Z,71.03
2017-12-19T00:30:56.453Z,66.50
2017-12-19T00:33:22.857Z,73.20
2017-12-19T00:35:49.032Z,61.53
2017-12-19T00:38:15.313Z,73.63
2017-12-19T00:40:41.513Z,57.27
2017-12-19T00:43:07.689Z,62.40
2017-12-19T00:45:34.220Z,61.37
2017-12-19T00:48:00.628Z,65.50
2017-12-19T00:50:26.846Z,54.23
2017-12-19T00:52:53.049Z,61.07
2017-12-19T00:55:19.219Z,66.03
2017-12-19T00:57:45.525Z,67.07
2017-12-19T01:00:11.975Z,70.50
2017-12-19T01:02:38.156Z,61.13
2017-12-19T01:05:04.422Z,89.17
2017-12-19T01:07:30.878Z,61.57
2017-12-19T01:09:57.070Z,72.27
2017-12-19T01:12:23.253Z,69.40
2017-12-19T01:14:49.766Z,64.00
2017-12-19T01:17:15.996Z,67.30
2017-12-19T01:19:42.256Z,64.00
2017-12-19T01:22:08.646Z,66.60
2017-12-19T01:24:34.934Z,56.17
2017-12-19T01:27:01.283Z,70.67
2017-12-19T01:29:27.531Z,56.80
2017-12-19T01:31:53.786Z,55.13
2017-12-19T01:34:20.004Z,55.53
2017-12-19T01:36:46.425Z,52.10
2017-12-19T01:39:12.608Z,55.80
2017-12-19T01:41:38.899Z,73.73
2017-12-19T01:44:05.331Z,70.87
2017-12-19T01:46:31.520Z,54.60
2017-12-19T01:48:57.788Z,55.93
2017-12-19T01:51:24.201Z,52.73
2017-12-19T01:53:50.448Z,61.33
2017-12-19T01:56:16.631Z,53.60
2017-12-19T01:58:42.865Z,53.00
2017-12-19T02:01:09.047Z,62.53
2017-12-19T02:03:35.228Z,52.37
2017-12-19T02:06:01.577Z,50.40
2017-12-19T02:08:27.810Z,54.83
2017-12-19T02:10:54.042Z,55.03
2017-12-19T02:13:20.417Z,52.17
2017-12-19T02:15:46.698Z,52.67
2017-12-19T02:18:13.145Z,64.13
2017-12-19T02:20:39.394Z,48.20
2017-12-19T02:23:06.010Z,72.73
2017-12-19T02:25:32.208Z,50.80
2017-12-19T02:27:58.436Z,61.77
2017-12-19T02:30:24.677Z,51.53
2017-12-19T02:32:50.864Z,58.40
2017-12-19T02:35:17.157Z,57.17
2017-12-19T02:37:43.509Z,49.53
2017-12-19T02:40:09.810Z,47.37
2017-12-19T02:42:36.034Z,59.63
2017-12-19T02:45:02.289Z,53.20
2017-12-19T02:47:28.478Z,48.57
2017-12-19T02:49:54.709Z,61.10
2017-12-19T02:52:21.159Z,55.07
2017-12-19T02:54:47.337Z,51.20
2017-12-19T02:57:13.643Z,43.40
2017-12-19T02:59:40.060Z,61.50
2017-12-19T03:02:06.254Z,46.93
2017-12-19T03:04:32.478Z,51.10
2017-12-19T03:06:58.729Z,51.37
2017-12-19T03:09:24.947Z,43.97
2017-12-19T03:11:51.196Z,50.67
2017-12-19T03:14:17.415Z,47.50
2017-12-19T03:16:43.638Z,42.17
2017-12-19T03:19:09.994Z,51.90
2017-12-19T03:21:36.312Z,50.40
2017-12-19T03:24:02.724Z,69.67
2017-12-19T03:26:28.945Z,46.73
2017-12-19T03:28:55.203Z,44.50
2017-12-19T03:31:21.423Z,52.30
2017-12-19T03:33:47.664Z,43.47
2017-12-19T03:36:13.854Z,58.03
2017-12-19T03:38:40.051Z,51.87
2017-12-19T03:41:06.281Z,40.60
2017-12-19T03:43:32.593Z,46.87
2017-12-19T03:45:58.776Z,53.90
2017-12-19T03:48:24.986Z,40.20
2017-12-19T03:50:51.204Z,36.40
2017-12-19T03:53:17.699Z,47.97
2017-12-19T03:55:44.124Z,41.30
2017-12-19T03:58:10.362Z,48.87
2017-12-19T04:00:36.544Z,45.20
2017-12-19T04:03:02.802Z,43.57
2017-12-19T04:05:28.976Z,53.10
2017-12-19T04:07:55.278Z,53.40
2017-12-19T04:10:21.888Z,56.87
2017-12-19T04:12:48.098Z,48.53
2017-12-19T04:15:14.576Z,44.70
2017-12-19T04:17:40.946Z,47.27
2017-12-19T04:20:07.387Z,53.47
2017-12-19T04:22:33.825Z,46.30
2017-12-19T04:25:00.058Z,49.40
2017-12-19T04:27:26.485Z,43.03
2017-12-19T04:29:52.926Z,51.33
2017-12-19T04:32:19.191Z,43.77
2017-12-19T04:34:45.399Z,45.87
2017-12-19T04:37:11.576Z,50.63
2017-12-19T04:39:37.874Z,43.77
2017-12-19T04:42:04.161Z,41.33
2017-12-19T04:44:30.548Z,41.53
2017-12-19T04:46:56.969Z,51.97
2017-12-19T04:49:23.150Z,47.10
2017-12-19T04:51:49.341Z,43.80
2017-12-19T04:54:15.665Z,43.13
2017-12-19T04:56:41.857Z,48.50
2017-12-19T04:59:08.110Z,46.23
2017-12-19T05:01:34.279Z,40.53
2017-12-19T05:04:00.565Z,41.37
2017-12-19T05:06:26.809Z,37.70
2017-12-19T05:08:53.239Z,46.27
2017-12-19T05:11:19.462Z,37.50
2017-12-19T05:13:45.657Z,43.77
2017-12-19T05:16:11.891Z,40.60
2017-12-19T05:18:38.310Z,44.20
2017-12-19T05:21:04.491Z,37.67
2017-12-19T05:23:30.821Z,42.17
2017-12-19T05:25:56.998Z,43.50
2017-12-19T05:28:23.265Z,42.47
2017-12-19T05:30:49.643Z,45.43
2017-12-19T05:33:15.941Z,49.97
2017-12-19T05:35:42.124Z,36.63
2017-12-19T05:38:08.394Z,43.37
2017-12-19T05:40:34.580Z,39.20
2017-12-19T05:43:00.761Z,45.93
2017-12-19T05:45:26.985Z,39.70
2017-12-19T05:47:53.165Z,42.80
2017-12-19T05:50:19.529Z,35.30
2017-12-19T05:52:45.744Z,37.70
2017-12-19T05:55:11.967Z,36.63
2017-12-19T05:57:38.225Z,34.80
2017-12-19T06:00:04.415Z,39.00
2017-12-19T06:02:30.635Z,42.77
2017-12-19T06:04:56.826Z,38.17
2017-12-19T06:07:23.005Z,42.93
2017-12-19T06:09:49.214Z,38.83
2017-12-19T06:12:15.400Z,42.17
2017-12-19T06:14:41.598Z,48.47
2017-12-19T06:17:07.836Z,43.77
2017-12-19T06:19:34.077Z,38.50
2017-12-19T06:22:00.306Z,48.77
2017-12-19T06:24:26.738Z,38.67
2017-12-19T06:26:52.954Z,37.27
2017-12-19T06:29:19.198Z,34.57
2017-12-19T06:31:45.619Z,38.80
2017-12-19T06:34:11.796Z,38.13
2017-12-19T06:36:38.009Z,38.53
2017-12-19T06:39:04.226Z,37.07
2017-12-19T06:41:30.757Z,36.10
2017-12-19T06:43:56.968Z,33.67
2017-12-19T06:46:23.189Z,37.40
2017-12-19T06:48:49.381Z,32.17
2017-12-19T06:51:15.557Z,37.13
2017-12-19T06:53:41.879Z,37.83
2017-12-19T06:56:08.069Z,39.03
2017-12-19T06:58:34.453Z,34.80
2017-12-19T07:01:00.737Z,34.03
2017-12-19T07:03:27.342Z,46.03
2017-12-19T07:05:54.502Z,43.10
2017-12-19T07:08:21.060Z,35.40
2017-12-19T07:10:47.347Z,31.73
2017-12-19T07:13:13.665Z,44.60
2017-12-19T07:15:39.874Z,33.00
2017-12-19T07:18:06.037Z,39.73
2017-12-19T07:20:32.355Z,41.93
2017-12-19T07:22:58.774Z,39.57
2017-12-19T07:25:25.004Z,39.27
2017-12-19T07:27:51.244Z,33.60
2017-12-19T07:30:17.654Z,43.73
2017-12-19T07:32:43.837Z,50.77
2017-12-19T07:35:10.108Z,35.10
2017-12-19T07:37:36.336Z,33.60
2017-12-19T07:40:02.573Z,39.77
2017-12-19T07:42:28.766Z,42.60
2017-12-19T07:44:55.009Z,31.60
2017-12-19T07:47:21.184Z,36.37
2017-12-19T07:49:47.356Z,36.47
2017-12-19T07:52:13.574Z,35.60
2017-12-19T07:54:39.955Z,35.77
2017-12-19T07:57:06.164Z,44.03
2017-12-19T07:59:32.420Z,39.37
2017-12-19T08:01:58.640Z,36.10
2017-12-19T08:04:24.832Z,38.80
2017-12-19T08:06:51.047Z,28.20
2017-12-19T08:09:17.219Z,31.43
2017-12-19T08:11:43.405Z,37.53
2017-12-19T08:14:09.634Z,39.50
2017-12-19T08:16:36.010Z,41.83
2017-12-19T08:19:02.205Z,31.30
2017-12-19T08:21:28.477Z,36.87
2017-12-19T08:23:54.663Z,36.00
2017-12-19T08:26:20.953Z,37.73
2017-12-19T08:28:47.354Z,28.33
2017-12-19T08:31:13.586Z,35.20
2017-12-19T08:33:39.827Z,32.77
2017-12-19T08:36:06.062Z,28.57
2017-12-19T08:38:32.266Z,33.33
2017-12-19T08:40:58.512Z,34.90
2017-12-19T08:43:24.743Z,35.73
2017-12-19T08:45:50.941Z,34.53
2017-12-19T08:48:17.132Z,39.30
2017-12-19T08:50:43.374Z,43.27
2017-12-19T08:53:09.567Z,37.93
2017-12-19T08:55:35.756Z,34.60
2017-12-19T08:58:01.994Z,38.10
2017-12-19T09:00:28.197Z,34.30
2017-12-19T09:02:54.409Z,42.93
2017-12-19T09:05:20.639Z,49.10
2017-12-19T09:07:46.856Z,43.03
2017-12-19T09:10:13.046Z,35.27
2017-12-19T09:12:39.407Z,37.63
2017-12-19T09:15:05.613Z,37.73
2017-12-19T09:17:31.814Z,38.43
2017-12-19T09:19:58.037Z,35.57
2017-12-19T09:22:24.219Z,40.27
2017-12-19T09:24:50.421Z,35.47
2017-12-19T09:27:16.681Z,33.87
2017-12-19T09:29:42.857Z,35.80
2017-12-19T09:32:09.055Z,36.33
2017-12-19T09:34:35.287Z,43.57
2017-12-19T09:37:01.459Z,41.83
2017-12-19T09:39:27.662Z,41.23
2017-12-19T09:41:53.894Z,45.20
2017-12-19T09:44:20.243Z,40.43
2017-12-19T09:46:46.439Z,45.13
2017-12-19T09:49:12.668Z,39.20
2017-12-19T09:51:38.874Z,47.63
2017-12-19T09:54:05.064Z,55.33
2017-12-19T09:56:31.290Z,41.27
2017-12-19T09:58:57.676Z,43.17
2017-12-19T10:01:24.055Z,45.77
2017-12-19T10:03:50.290Z,61.70
2017-12-19T10:06:16.488Z,52.53
2017-12-19T10:08:42.746Z,51.17
2017-12-19T10:11:09.153Z,69.03
2017-12-19T10:13:35.400Z,54.97
2017-12-19T10:16:01.591Z,47.70
2017-12-19T10:18:27.875Z,37.73
2017-12-19T10:20:54.264Z,47.53
2017-12-19T10:23:20.465Z,53.53
2017-12-19T10:25:46.677Z,52.83
2017-12-19T10:28:12.855Z,64.37
2017-12-19T10:30:39.044Z,57.17
2017-12-19T10:33:05.425Z,64.57
2017-12-19T10:35:31.652Z,60.77
2017-12-19T10:37:57.838Z,68.20
2017-12-19T10:40:24.082Z,58.33
2017-12-19T10:42:50.274Z,60.27
2017-12-19T10:45:16.623Z,53.57
2017-12-19T10:47:42.850Z,54.57
2017-12-19T10:50:09.242Z,50.33
2017-12-19T10:52:35.437Z,56.03
2017-12-19T10:55:01.764Z,42.13
2017-12-19T10:57:27.953Z,34.33
2017-12-19T10:59:54.317Z,38.07
2017-12-19T11:02:20.566Z,37.93
2017-12-19T11:04:46.752Z,35.87
2017-12-19T11:07:13.028Z,35.37
2017-12-19T11:09:39.541Z,46.47
2017-12-19T11:12:05.913Z,65.33
2017-12-19T11:14:32.131Z,59.40
2017-12-19T11:16:58.760Z,59.20
2017-12-19T11:19:25.013Z,49.30
2017-12-19T11:21:51.214Z,54.27
2017-12-19T11:24:17.466Z,55.67
2017-12-19T11:26:43.635Z,53.97
2017-12-19T11:29:09.822Z,57.67
2017-12-19T11:31:36.048Z,60.90
2017-12-19T11:34:02.225Z,77.70
2017-12-19T11:36:28.616Z,49.87
2017-12-19T11:38:54.836Z,41.33
2017-12-19T11:41:21.048Z,43.53
2017-12-19T11:43:47.251Z,47.10
2017-12-19T11:46:13.515Z,51.17
2017-12-19T11:48:39.741Z,55.07
2017-12-19T11:51:05.928Z,54.30
2017-12-19T11:53:32.240Z,45.43
2017-12-19T11:55:58.424Z,42.37
2017-12-19T11:58:24.693Z,54.33
2017-12-19T12:00:51.085Z,57.07
2017-12-19T12:03:17.281Z,48.20
2017-12-19T12:05:43.479Z,47.37
2017-12-19T12:08:09.739Z,67.07
2017-12-19T12:10:35.919Z,45.43
2017-12-19T12:13:02.112Z,38.03
2017-12-19T12:15:28.316Z,38.77
2017-12-19T12:17:54.525Z,37.80
2017-12-19T12:20:20.914Z,42.23
2017-12-19T12:22:47.129Z,49.30
2017-12-19T12:25:13.310Z,44.63
2017-12-19T12:27:39.621Z,51.03
2017-12-19T12:30:06.049Z,30.93
2017-12-19T12:32:32.246Z,38.90
2017-12-19T12:34:58.494Z,59.17
2017-12-19T12:37:24.763Z,46.50
2017-12-19T12:39:50.938Z,40.90
2017-12-19T12:42:17.121Z,41.63
2017-12-19T12:44:43.353Z,49.30
2017-12-19T12:47:09.645Z,53.03
2017-12-19T12:49:35.875Z,49.13
2017-12-19T12:52:02.110Z,53.57
2017-12-19T12:54:28.330Z,49.37
2017-12-19T12:56:54.533Z,45.03
2017-12-19T12:59:20.791Z,59.93
2017-12-19T13:01:47.038Z,71.23
2017-12-19T13:04:13.248Z,57.57
2017-12-19T13:06:39.479Z,42.60
2017-12-19T13:09:05.706Z,49.07
2017-12-19T13:11:31.935Z,45.90
2017-12-19T13:13:58.139Z,51.60
2017-12-19T13:16:24.391Z,44.50
2017-12-19T13:18:50.582Z,64.37
2017-12-19T13:21:16.804Z,43.47
2017-12-19T13:23:42.988Z,41.80
2017-12-19T13:26:09.169Z,60.07
2017-12-19T13:28:35.392Z,54.70
2017-12-19T13:31:01.753Z,46.97
2017-12-19T13:33:27.950Z,48.93
2017-12-19T13:35:54.420Z,55.63
2017-12-19T13:38:20.618Z,59.00
2017-12-19T13:40:46.873Z,48.60
2017-12-19T13:43:13.077Z,56.00
2017-12-19T13:45:39.252Z,66.00
2017-12-19T13:48:05.569Z,53.80
2017-12-19T13:50:32.003Z,48.30
2017-12-19T13:52:58.532Z,64.30
2017-12-19T13:55:24.727Z,52.60
2017-12-19T13:57:50.948Z,45.13
2017-12-19T14:00:17.318Z,62.27
2017-12-19T14:02:43.547Z,49.90
2017-12-19T14:05:09.916Z,53.50
2017-12-19T14:07:36.218Z,58.43
2017-12-19T14:10:02.410Z,44.90
2017-12-19T14:12:28.661Z,53.83
2017-12-19T14:14:54.874Z,40.03
2017-12-19T14:17:21.069Z,65.77
2017-12-19T14:19:47.285Z,54.50
2017-12-19T14:22:13.759Z,42.50
2017-12-19T14:24:40.172Z,47.37
2017-12-19T14:27:06.387Z,54.80
2017-12-19T14:29:32.682Z,46.93
2017-12-19T14:31:58.886Z,75.43
2017-12-19T14:34:25.110Z,74.20
2017-12-19T14:36:51.290Z,56.00
2017-12-19T14:39:17.650Z,63.53
2017-12-19T14:41:43.872Z,50.67
2017-12-19T14:44:10.282Z,63.73
2017-12-19T14:46:36.538Z,51.70
2017-12-19T14:49:02.745Z,97.57
2017-12-19T14:51:29.130Z,44.93
2017-12-19T14:53:55.550Z,44.07
2017-12-19T14:56:21.778Z,38.47
2017-12-19T14:58:47.944Z,35.53
2017-12-19T15:01:14.219Z,31.70
2017-12-19T15:03:40.482Z,68.03
2017-12-19T15:06:06.660Z,46.83
2017-12-19T15:08:32.947Z,78.57
2017-12-19T15:10:59.374Z,60.67
2017-12-19T15:13:25.557Z,80.37
2017-12-19T15:15:51.827Z,58.77
2017-12-19T15:18:18.053Z,33.00
2017-12-19T15:20:44.306Z,29.50
2017-12-19T15:23:10.486Z,36.80
2017-12-19T15:25:36.753Z,50.40
2017-12-19T15:28:02.991Z,76.20
2017-12-19T15:30:29.187Z,97.07
2017-12-19T15:32:55.497Z,64.43
2017-12-19T15:35:21.676Z,102.47
2017-12-19T15:37:47.902Z,84.07
2017-12-19T15:40:14.142Z,155.30
2017-12-19T15:42:40.360Z,84.80
2017-12-19T15:45:06.782Z,83.60
2017-12-19T15:47:33.226Z,101.50
2017-12-19T15:49:59.429Z,91.70
2017-12-19T15:52:25.667Z,94.73
2017-12-19T15:54:51.900Z,94.87
2017-12-19T15:57:18.097Z,97.40
2017-12-19T15:59:44.352Z,78.97
2017-12-19T16:02:10.969Z,107.83
2017-12-19T16:04:37.238Z,82.60
2017-12-19T16:07:03.404Z,82.37
2017-12-19T16:09:29.622Z,102.53
2017-12-19T16:11:55.917Z,95.47
2017-12-19T16:14:22.103Z,99.00
2017-12-19T16:16:48.292Z,69.93
2017-12-19T16:19:14.473Z,47.33
2017-12-19T16:21:40.837Z,37.87
2017-12-19T16:24:07.066Z,28.23
2017-12-19T16:26:33.296Z,28.67
2017-12-19T16:28:59.476Z,35.63
2017-12-19T16:31:25.723Z,71.23
2017-12-19T16:33:51.900Z,58.43
2017-12-19T16:36:18.094Z,56.63
2017-12-19T16:38:44.419Z,61.90
2017-12-19T16:41:10.573Z,34.37
2017-12-19T16:43:36.740Z,81.60
2017-12-19T16:46:02.939Z,32.70
2017-12-19T16:48:29.104Z,31.60
2017-12-19T16:50:55.371Z,40.17
2017-12-19T16:53:21.597Z,38.07
2017-12-19T16:55:47.784Z,30.53
2017-12-19T16:58:13.962Z,41.47
2017-12-19T17:00:40.176Z,50.77
2017-12-19T17:03:06.520Z,45.30
2017-12-19T17:05:32.735Z,58.77
2017-12-19T17:07:58.979Z,45.60
2017-12-19T17:10:25.202Z,72.00
2017-12-19T17:12:51.371Z,65.87
2017-12-19T17:15:17.658Z,66.10
2017-12-19T17:17:44.065Z,99.23
2017-12-19T17:20:10.733Z,62.27
2017-12-19T17:22:36.922Z,63.80
2017-12-19T17:25:03.301Z,89.53
2017-12-19T17:27:29.503Z,92.77
2017-12-19T17:29:55.922Z,101.17
2017-12-19T17:32:22.187Z,98.93
2017-12-19T17:34:48.436Z,100.20
2017-12-19T17:37:14.607Z,94.57
2017-12-19T17:39:40.899Z,100.70
2017-12-19T17:42:07.303Z,78.03
2017-12-19T17:44:33.492Z,88.67
2017-12-19T17:46:59.736Z,74.30
2017-12-19T17:49:25.971Z,103.45
2017-12-19T17:51:52.146Z,64.60
2017-12-19T17:54:18.317Z,104.60
2017-12-19T17:56:44.515Z,95.10
2017-12-19T17:59:10.682Z,73.03
2017-12-19T18:01:36.929Z,75.83
2017-12-19T18:04:03.332Z,79.30
2017-12-19T18:06:29.498Z,87.03
2017-12-19T18:08:55.714Z,80.70
2017-12-19T18:11:21.928Z,103.63
2017-12-19T18:13:48.260Z,124.70
2017-12-19T18:16:14.467Z,91.63
2017-12-19T18:18:40.659Z,75.20
2017-12-19T18:21:06.961Z,102.73
2017-12-19T18:23:35.083Z,103.63
2017-12-19T18:26:01.450Z,73.13
2017-12-19T18:28:29.679Z,69.17
2017-12-19T18:30:58.358Z,83.80
2017-12-19T18:33:26.896Z,66.03
2017-12-19T18:35:53.428Z,60.33
2017-12-19T18:38:19.592Z,54.40
2017-12-19T18:40:46.180Z,61.20
2017-12-19T18:43:12.426Z,57.50
2017-12-19T18:45:38.609Z,49.73
2017-12-19T18:48:04.879Z,43.40
2017-12-19T18:50:31.094Z,42.20
2017-12-19T18:52:57.507Z,49.70
2017-12-19T18:55:23.682Z,35.70
2017-12-19T18:57:49.891Z,60.20
2017-12-19T19:00:16.229Z,56.20
2017-12-19T19:02:42.413Z,60.63
2017-12-19T19:05:08.684Z,58.70
2017-12-19T19:07:34.865Z,44.07
2017-12-19T19:10:01.032Z,52.40
2017-12-19T19:12:27.361Z,47.00
2017-12-19T19:14:53.533Z,45.33
2017-12-19T19:17:19.845Z,45.77
2017-12-19T19:19:46.081Z,47.97
2017-12-19T19:22:12.252Z,44.13
2017-12-19T19:24:38.527Z,42.03
2017-12-19T19:27:04.952Z,37.63
2017-12-19T19:29:31.144Z,37.83
2017-12-19T19:31:57.309Z,45.43
2017-12-19T19:34:23.531Z,42.93
2017-12-19T19:36:49.708Z,67.20
2017-12-19T19:39:15.872Z,129.27
2017-12-19T19:41:42.328Z,56.27
2017-12-19T19:44:08.559Z,58.43
2017-12-19T19:46:34.726Z,63.17
2017-12-19T19:49:00.989Z,49.47
2017-12-19T19:51:27.457Z,62.43
2017-12-19T19:53:53.640Z,52.83
2017-12-19T19:56:19.819Z,59.90
2017-12-19T19:58:46.033Z,61.93
2017-12-19T20:01:12.188Z,65.30
2017-12-19T20:03:38.408Z,61.33
2017-12-19T20:06:04.626Z,68.00
2017-12-19T20:08:30.832Z,71.23
2017-12-19T20:10:57.072Z,73.93
2017-12-19T20:13:23.305Z,73.93
2017-12-19T20:15:49.795Z,73.93
2017-12-19T20:18:15.935Z,64.33
2017-12-19T20:20:42.131Z,66.80
2017-12-19T20:23:08.306Z,59.80
2017-12-19T20:25:34.529Z,63.00
2017-12-19T20:28:00.753Z,69.50
2017-12-19T20:30:26.935Z,54.90
2017-12-19T20:32:53.099Z,72.37
2017-12-19T20:35:19.309Z,84.50
2017-12-19T20:37:45.541Z,80.03
2017-12-19T20:40:11.770Z,68.13
2017-12-19T20:42:38.131Z,64.43
2017-12-19T20:45:04.323Z,82.17
2017-12-19T20:47:30.501Z,84.50
2017-12-19T20:49:56.785Z,70.83
2017-12-19T20:52:22.971Z,84.37
2017-12-19T20:54:49.151Z,73.23
2017-12-19T20:57:15.340Z,69.47
2017-12-19T20:59:41.530Z,77.63
2017-12-19T21:02:07.720Z,90.83
2017-12-19T21:04:33.957Z,68.63
2017-12-19T21:07:00.129Z,51.40
2017-12-19T21:09:26.332Z,63.97
2017-12-19T21:11:52.570Z,66.47
2017-12-19T21:14:18.777Z,58.77
2017-12-19T21:16:45.016Z,59.33
2017-12-19T21:19:11.223Z,58.53
2017-12-19T21:21:37.402Z,74.50
2017-12-19T21:24:03.571Z,72.00
2017-12-19T21:26:29.961Z,71.63
2017-12-19T21:28:56.138Z,64.20
2017-12-19T21:31:22.336Z,50.50
2017-12-19T21:33:48.574Z,51.67
2017-12-19T21:36:14.881Z,48.57
2017-12-19T21:38:41.058Z,42.40
2017-12-19T21:41:07.288Z,41.57
2017-12-19T21:43:33.509Z,45.23
2017-12-19T21:45:59.705Z,49.27
2017-12-19T21:48:25.906Z,47.30
2017-12-19T21:50:52.071Z,57.43
2017-12-19T21:53:18.466Z,46.03
2017-12-19T21:55:44.666Z,53.03
2017-12-19T21:58:10.849Z,54.80
2017-12-19T22:00:37.076Z,62.70
2017-12-19T22:03:03.283Z,53.30
2017-12-19T22:05:29.606Z,59.63
2017-12-19T22:07:55.807Z,68.00
2017-12-19T22:10:22.027Z,60.90
2017-12-19T22:12:48.207Z,69.37
2017-12-19T22:15:14.380Z,65.50
2017-12-19T22:17:40.721Z,53.10
2017-12-19T22:20:06.902Z,63.10
2017-12-19T22:22:33.085Z,55.03
2017-12-19T22:24:59.300Z,53.10
2017-12-19T22:27:25.495Z,58.50
2017-12-19T22:29:51.673Z,49.13
2017-12-19T22:32:17.891Z,56.07
2017-12-19T22:34:44.092Z,56.47
2017-12-19T22:37:10.286Z,44.00
2017-12-19T22:39:36.512Z,50.90
2017-12-19T22:42:02.699Z,59.07
2017-12-19T22:44:28.882Z,56.03
2017-12-19T22:46:55.109Z,84.20
2017-12-19T22:49:21.295Z,56.83
2017-12-19T22:51:47.553Z,50.03
2017-12-19T22:54:13.777Z,55.07
2017-12-19T22:56:40.018Z,58.50
2017-12-19T22:59:06.207Z,62.23
2017-12-19T23:01:32.416Z,63.37
2017-12-19T23:03:58.597Z,72.27
2017-12-19T23:06:24.788Z,73.07
2017-12-19T23:08:51.038Z,58.80
2017-12-19T23:11:17.219Z,61.67
2017-12-19T23:13:43.398Z,78.07
2017-12-19T23:16:09.626Z,63.43
2017-12-19T23:18:35.975Z,49.67
2017-12-19T23:21:02.187Z,63.87
2017-12-19T23:23:28.433Z,63.50
2017-12-19T23:25:54.712Z,50.50
2017-12-19T23:28:20.896Z,53.70
2017-12-19T23:30:47.117Z,54.83
2017-12-19T23:33:13.297Z,46.90
2017-12-19T23:35:39.487Z,58.40
2017-12-19T23:38:05.747Z,43.43
2017-12-19T23:40:31.924Z,48.03
2017-12-19T23:42:58.122Z,42.73
2017-12-19T23:45:24.369Z,44.33
2017-12-19T23:47:50.555Z,41.93
2017-12-19T23:50:16.747Z,50.53
2017-12-19T23:52:42.971Z,43.63
2017-12-19T23:55:09.152Z,46.20
2017-12-19T23:57:35.338Z,54.60
